sensor_id;sensor_type;location;lat;lon;timestamp;P1;durP1;ratioP1;P2;durP2;ratioP2
51732;SDS011;39139;53.144;6.244;2023-08-01T00:00:44;10.77;;;5.05;;
51732;SDS011;39139;53.144;6.244;2023-08-01T00:03:10;11.38;;;4.80;;
51732;SDS011;39139;53.144;6.244;2023-08-01T00:05:35;9.18;;;5.28;;
51732;SDS011;39139;53.144;6.244;2023-08-01T00:08:02;11.10;;;5.45;;
51732;SDS011;39139;53.144;6.244;2023-08-01T00:10:28;12.27;;;4.68;;
51732;SDS011;39139;53.144;6.244;2023-08-01T00:12:54;9.20;;;5.53;;
51732;SDS011;39139;53.144;6.244;2023-08-01T00:15:19;9.95;;;5.05;;
51732;SDS011;39139;53.144;6.244;2023-08-01T00:17:45;8.93;;;5.28;;
51732;SDS011;39139;53.144;6.244;2023-08-01T00:20:11;11.70;;;5.20;;
51732;SDS011;39139;53.144;6.244;2023-08-01T00:22:37;11.93;;;5.07;;
51732;SDS011;39139;53.144;6.244;2023-08-01T00:25:02;8.63;;;4.38;;
51732;SDS011;39139;53.144;6.244;2023-08-01T00:27:28;11.60;;;6.00;;
51732;SDS011;39139;53.144;6.244;2023-08-01T00:29:54;9.82;;;5.40;;
51732;SDS011;39139;53.144;6.244;2023-08-01T00:32:19;13.80;;;5.35;;
51732;SDS011;39139;53.144;6.244;2023-08-01T00:34:45;13.65;;;5.97;;
51732;SDS011;39139;53.144;6.244;2023-08-01T00:37:11;12.98;;;5.57;;
51732;SDS011;39139;53.144;6.244;2023-08-01T00:39:37;14.23;;;5.28;;
51732;SDS011;39139;53.144;6.244;2023-08-01T00:42:03;9.90;;;5.53;;
51732;SDS011;39139;53.144;6.244;2023-08-01T00:44:29;9.27;;;4.75;;
51732;SDS011;39139;53.144;6.244;2023-08-01T00:46:54;11.45;;;5.00;;
51732;SDS011;39139;53.144;6.244;2023-08-01T00:49:20;11.70;;;4.75;;
51732;SDS011;39139;53.144;6.244;2023-08-01T00:51:46;13.40;;;5.30;;
51732;SDS011;39139;53.144;6.244;2023-08-01T00:54:12;8.43;;;4.43;;
51732;SDS011;39139;53.144;6.244;2023-08-01T00:56:40;9.48;;;4.82;;
51732;SDS011;39139;53.144;6.244;2023-08-01T00:59:06;12.65;;;5.03;;
51732;SDS011;39139;53.144;6.244;2023-08-01T01:01:31;10.48;;;5.60;;
51732;SDS011;39139;53.144;6.244;2023-08-01T01:03:57;9.00;;;3.95;;
51732;SDS011;39139;53.144;6.244;2023-08-01T01:09:02;10.02;;;5.13;;
51732;SDS011;39139;53.144;6.244;2023-08-01T01:11:30;7.35;;;4.40;;
51732;SDS011;39139;53.144;6.244;2023-08-01T01:13:55;10.48;;;5.10;;
51732;SDS011;39139;53.144;6.244;2023-08-01T01:16:21;8.95;;;4.97;;
51732;SDS011;39139;53.144;6.244;2023-08-01T01:18:46;15.23;;;4.88;;
51732;SDS011;39139;53.144;6.244;2023-08-01T01:21:12;17.45;;;5.40;;
51732;SDS011;39139;53.144;6.244;2023-08-01T01:23:38;10.52;;;5.45;;
51732;SDS011;39139;53.144;6.244;2023-08-01T01:26:05;17.10;;;5.10;;
51732;SDS011;39139;53.144;6.244;2023-08-01T01:28:32;14.80;;;5.47;;
51732;SDS011;39139;53.144;6.244;2023-08-01T01:30:58;10.63;;;4.53;;
51732;SDS011;39139;53.144;6.244;2023-08-01T01:33:26;13.30;;;4.78;;
51732;SDS011;39139;53.144;6.244;2023-08-01T01:35:53;17.40;;;5.82;;
51732;SDS011;39139;53.144;6.244;2023-08-01T01:38:19;10.13;;;4.55;;
51732;SDS011;39139;53.144;6.244;2023-08-01T01:40:45;9.32;;;5.00;;
51732;SDS011;39139;53.144;6.244;2023-08-01T01:43:10;8.93;;;4.88;;
51732;SDS011;39139;53.144;6.244;2023-08-01T01:45:36;6.60;;;4.85;;
51732;SDS011;39139;53.144;6.244;2023-08-01T01:48:02;12.73;;;4.93;;
51732;SDS011;39139;53.144;6.244;2023-08-01T01:50:27;9.15;;;4.90;;
51732;SDS011;39139;53.144;6.244;2023-08-01T01:52:53;8.88;;;4.40;;
51732;SDS011;39139;53.144;6.244;2023-08-01T01:55:19;12.52;;;4.22;;
51732;SDS011;39139;53.144;6.244;2023-08-01T01:57:44;9.85;;;4.78;;
51732;SDS011;39139;53.144;6.244;2023-08-01T02:00:10;8.10;;;4.45;;
51732;SDS011;39139;53.144;6.244;2023-08-01T02:02:36;11.77;;;4.63;;
51732;SDS011;39139;53.144;6.244;2023-08-01T02:05:02;8.65;;;4.38;;
51732;SDS011;39139;53.144;6.244;2023-08-01T02:07:31;7.50;;;4.37;;
51732;SDS011;39139;53.144;6.244;2023-08-01T02:09:58;12.85;;;5.25;;
51732;SDS011;39139;53.144;6.244;2023-08-01T02:12:24;9.18;;;3.97;;
51732;SDS011;39139;53.144;6.244;2023-08-01T02:14:50;7.32;;;4.88;;
51732;SDS011;39139;53.144;6.244;2023-08-01T02:17:16;7.30;;;4.15;;
51732;SDS011;39139;53.144;6.244;2023-08-01T02:19:44;9.10;;;4.07;;
51732;SDS011;39139;53.144;6.244;2023-08-01T02:22:09;8.63;;;3.95;;
51732;SDS011;39139;53.144;6.244;2023-08-01T02:24:35;12.70;;;4.50;;
51732;SDS011;39139;53.144;6.244;2023-08-01T02:27:01;16.52;;;4.70;;
51732;SDS011;39139;53.144;6.244;2023-08-01T02:29:26;12.07;;;4.00;;
51732;SDS011;39139;53.144;6.244;2023-08-01T02:31:52;11.10;;;5.25;;
51732;SDS011;39139;53.144;6.244;2023-08-01T02:34:18;11.20;;;3.88;;
51732;SDS011;39139;53.144;6.244;2023-08-01T02:36:43;12.88;;;5.07;;
51732;SDS011;39139;53.144;6.244;2023-08-01T02:39:09;10.35;;;4.10;;
51732;SDS011;39139;53.144;6.244;2023-08-01T02:41:35;15.18;;;4.45;;
51732;SDS011;39139;53.144;6.244;2023-08-01T02:44:00;7.70;;;4.72;;
51732;SDS011;39139;53.144;6.244;2023-08-01T02:46:26;15.30;;;4.13;;
51732;SDS011;39139;53.144;6.244;2023-08-01T02:48:54;15.50;;;5.30;;
51732;SDS011;39139;53.144;6.244;2023-08-01T02:51:20;32.35;;;6.10;;
51732;SDS011;39139;53.144;6.244;2023-08-01T02:53:46;17.85;;;6.50;;
51732;SDS011;39139;53.144;6.244;2023-08-01T02:56:11;20.55;;;7.75;;
51732;SDS011;39139;53.144;6.244;2023-08-01T02:58:37;15.48;;;7.53;;
51732;SDS011;39139;53.144;6.244;2023-08-01T03:01:06;15.68;;;7.10;;
51732;SDS011;39139;53.144;6.244;2023-08-01T03:03:34;15.15;;;8.30;;
51732;SDS011;39139;53.144;6.244;2023-08-01T03:06:01;20.00;;;7.25;;
51732;SDS011;39139;53.144;6.244;2023-08-01T03:08:27;22.38;;;7.50;;
51732;SDS011;39139;53.144;6.244;2023-08-01T03:10:53;23.70;;;8.60;;
51732;SDS011;39139;53.144;6.244;2023-08-01T03:13:19;22.58;;;8.68;;
51732;SDS011;39139;53.144;6.244;2023-08-01T03:15:48;17.85;;;7.95;;
51732;SDS011;39139;53.144;6.244;2023-08-01T03:18:14;22.75;;;7.78;;
51732;SDS011;39139;53.144;6.244;2023-08-01T03:20:39;16.48;;;6.75;;
51732;SDS011;39139;53.144;6.244;2023-08-01T03:23:05;15.75;;;6.00;;
51732;SDS011;39139;53.144;6.244;2023-08-01T03:25:31;13.50;;;6.20;;
51732;SDS011;39139;53.144;6.244;2023-08-01T03:27:57;11.73;;;4.95;;
51732;SDS011;39139;53.144;6.244;2023-08-01T03:30:23;10.85;;;4.22;;
51732;SDS011;39139;53.144;6.244;2023-08-01T03:32:49;10.05;;;4.45;;
51732;SDS011;39139;53.144;6.244;2023-08-01T03:35:15;14.32;;;4.47;;
51732;SDS011;39139;53.144;6.244;2023-08-01T03:37:40;13.23;;;4.00;;
51732;SDS011;39139;53.144;6.244;2023-08-01T03:40:06;15.23;;;3.55;;
51732;SDS011;39139;53.144;6.244;2023-08-01T03:42:36;10.43;;;3.78;;
51732;SDS011;39139;53.144;6.244;2023-08-01T03:45:02;12.07;;;4.05;;
51732;SDS011;39139;53.144;6.244;2023-08-01T03:47:28;14.90;;;3.83;;
51732;SDS011;39139;53.144;6.244;2023-08-01T03:49:54;7.35;;;2.78;;
51732;SDS011;39139;53.144;6.244;2023-08-01T03:52:19;12.48;;;3.35;;
51732;SDS011;39139;53.144;6.244;2023-08-01T03:54:45;9.57;;;3.40;;
51732;SDS011;39139;53.144;6.244;2023-08-01T03:57:11;11.25;;;3.25;;
51732;SDS011;39139;53.144;6.244;2023-08-01T03:59:36;19.90;;;3.40;;
51732;SDS011;39139;53.144;6.244;2023-08-01T04:02:02;6.30;;;2.75;;
51732;SDS011;39139;53.144;6.244;2023-08-01T04:04:28;9.05;;;2.45;;
51732;SDS011;39139;53.144;6.244;2023-08-01T04:06:56;6.88;;;2.75;;
51732;SDS011;39139;53.144;6.244;2023-08-01T04:09:21;10.20;;;3.10;;
51732;SDS011;39139;53.144;6.244;2023-08-01T04:11:47;12.23;;;2.80;;
51732;SDS011;39139;53.144;6.244;2023-08-01T04:14:13;10.50;;;2.17;;
51732;SDS011;39139;53.144;6.244;2023-08-01T04:16:39;8.50;;;2.08;;
51732;SDS011;39139;53.144;6.244;2023-08-01T04:19:05;12.77;;;2.30;;
51732;SDS011;39139;53.144;6.244;2023-08-01T04:21:30;13.35;;;2.70;;
51732;SDS011;39139;53.144;6.244;2023-08-01T04:23:56;11.00;;;2.22;;
51732;SDS011;39139;53.144;6.244;2023-08-01T04:26:22;8.95;;;2.08;;
51732;SDS011;39139;53.144;6.244;2023-08-01T04:28:47;12.48;;;2.13;;
51732;SDS011;39139;53.144;6.244;2023-08-01T04:31:13;8.30;;;1.95;;
51732;SDS011;39139;53.144;6.244;2023-08-01T04:33:39;12.15;;;2.28;;
51732;SDS011;39139;53.144;6.244;2023-08-01T04:36:05;6.28;;;1.65;;
51732;SDS011;39139;53.144;6.244;2023-08-01T04:38:30;9.82;;;1.83;;
51732;SDS011;39139;53.144;6.244;2023-08-01T04:40:56;6.15;;;1.55;;
51732;SDS011;39139;53.144;6.244;2023-08-01T04:43:22;7.57;;;1.73;;
51732;SDS011;39139;53.144;6.244;2023-08-01T04:45:48;10.27;;;1.58;;
51732;SDS011;39139;53.144;6.244;2023-08-01T04:48:13;11.98;;;2.13;;
51732;SDS011;39139;53.144;6.244;2023-08-01T04:50:39;8.73;;;2.30;;
51732;SDS011;39139;53.144;6.244;2023-08-01T04:53:05;6.32;;;2.22;;
51732;SDS011;39139;53.144;6.244;2023-08-01T04:55:31;9.48;;;2.72;;
51732;SDS011;39139;53.144;6.244;2023-08-01T04:57:57;6.97;;;2.20;;
51732;SDS011;39139;53.144;6.244;2023-08-01T05:00:23;4.95;;;2.15;;
51732;SDS011;39139;53.144;6.244;2023-08-01T05:02:48;5.22;;;2.20;;
51732;SDS011;39139;53.144;6.244;2023-08-01T05:05:14;6.18;;;1.80;;
51732;SDS011;39139;53.144;6.244;2023-08-01T05:07:41;7.35;;;2.20;;
51732;SDS011;39139;53.144;6.244;2023-08-01T05:10:07;7.03;;;1.85;;
51732;SDS011;39139;53.144;6.244;2023-08-01T05:12:33;10.55;;;1.92;;
51732;SDS011;39139;53.144;6.244;2023-08-01T05:14:59;8.10;;;2.45;;
51732;SDS011;39139;53.144;6.244;2023-08-01T05:17:24;6.32;;;1.77;;
51732;SDS011;39139;53.144;6.244;2023-08-01T05:19:50;3.55;;;1.70;;
51732;SDS011;39139;53.144;6.244;2023-08-01T05:22:16;5.63;;;2.30;;
51732;SDS011;39139;53.144;6.244;2023-08-01T05:24:41;7.68;;;2.50;;
51732;SDS011;39139;53.144;6.244;2023-08-01T05:27:07;5.13;;;2.05;;
51732;SDS011;39139;53.144;6.244;2023-08-01T05:29:33;9.15;;;2.08;;
51732;SDS011;39139;53.144;6.244;2023-08-01T05:31:59;8.85;;;3.13;;
51732;SDS011;39139;53.144;6.244;2023-08-01T05:34:24;9.48;;;3.05;;
51732;SDS011;39139;53.144;6.244;2023-08-01T05:36:50;3.45;;;2.72;;
51732;SDS011;39139;53.144;6.244;2023-08-01T05:39:16;5.22;;;2.38;;
51732;SDS011;39139;53.144;6.244;2023-08-01T05:41:42;9.07;;;2.10;;
51732;SDS011;39139;53.144;6.244;2023-08-01T05:44:08;6.55;;;2.38;;
51732;SDS011;39139;53.144;6.244;2023-08-01T05:46:33;10.07;;;2.67;;
51732;SDS011;39139;53.144;6.244;2023-08-01T05:48:59;4.38;;;1.98;;
51732;SDS011;39139;53.144;6.244;2023-08-01T05:51:25;5.75;;;2.58;;
51732;SDS011;39139;53.144;6.244;2023-08-01T05:53:51;4.88;;;2.30;;
51732;SDS011;39139;53.144;6.244;2023-08-01T05:56:16;8.05;;;3.40;;
51732;SDS011;39139;53.144;6.244;2023-08-01T05:58:42;7.82;;;3.15;;
51732;SDS011;39139;53.144;6.244;2023-08-01T06:03:37;4.57;;;3.40;;
51732;SDS011;39139;53.144;6.244;2023-08-01T06:06:03;7.10;;;3.28;;
51732;SDS011;39139;53.144;6.244;2023-08-01T06:08:29;7.82;;;2.88;;
51732;SDS011;39139;53.144;6.244;2023-08-01T06:10:55;3.88;;;2.90;;
51732;SDS011;39139;53.144;6.244;2023-08-01T06:13:21;8.60;;;2.80;;
51732;SDS011;39139;53.144;6.244;2023-08-01T06:15:47;4.28;;;1.60;;
51732;SDS011;39139;53.144;6.244;2023-08-01T06:18:12;6.82;;;2.40;;
51732;SDS011;39139;53.144;6.244;2023-08-01T06:20:38;7.43;;;1.60;;
51732;SDS011;39139;53.144;6.244;2023-08-01T06:23:04;2.67;;;1.38;;
51732;SDS011;39139;53.144;6.244;2023-08-01T06:25:30;5.75;;;1.73;;
51732;SDS011;39139;53.144;6.244;2023-08-01T06:27:56;7.70;;;1.88;;
51732;SDS011;39139;53.144;6.244;2023-08-01T06:30:21;5.22;;;1.60;;
51732;SDS011;39139;53.144;6.244;2023-08-01T06:32:47;11.80;;;1.85;;
51732;SDS011;39139;53.144;6.244;2023-08-01T06:35:12;8.52;;;1.70;;
51732;SDS011;39139;53.144;6.244;2023-08-01T06:37:38;6.10;;;1.50;;
51732;SDS011;39139;53.144;6.244;2023-08-01T06:40:04;7.43;;;1.80;;
51732;SDS011;39139;53.144;6.244;2023-08-01T06:42:30;10.88;;;1.92;;
51732;SDS011;39139;53.144;6.244;2023-08-01T06:44:56;9.75;;;1.65;;
51732;SDS011;39139;53.144;6.244;2023-08-01T06:47:21;5.97;;;1.58;;
51732;SDS011;39139;53.144;6.244;2023-08-01T06:49:47;7.30;;;1.48;;
51732;SDS011;39139;53.144;6.244;2023-08-01T06:52:13;10.57;;;1.27;;
51732;SDS011;39139;53.144;6.244;2023-08-01T06:54:38;10.77;;;2.25;;
51732;SDS011;39139;53.144;6.244;2023-08-01T06:57:04;9.48;;;1.92;;
51732;SDS011;39139;53.144;6.244;2023-08-01T06:59:31;13.02;;;1.40;;
51732;SDS011;39139;53.144;6.244;2023-08-01T07:01:57;8.82;;;1.33;;
51732;SDS011;39139;53.144;6.244;2023-08-01T07:04:22;7.72;;;0.95;;
51732;SDS011;39139;53.144;6.244;2023-08-01T07:06:48;4.38;;;1.13;;
51732;SDS011;39139;53.144;6.244;2023-08-01T07:09:14;7.00;;;1.50;;
51732;SDS011;39139;53.144;6.244;2023-08-01T07:11:40;5.82;;;1.02;;
51732;SDS011;39139;53.144;6.244;2023-08-01T07:14:05;12.30;;;1.55;;
51732;SDS011;39139;53.144;6.244;2023-08-01T07:16:31;8.32;;;1.33;;
51732;SDS011;39139;53.144;6.244;2023-08-01T07:19:00;8.82;;;1.25;;
51732;SDS011;39139;53.144;6.244;2023-08-01T07:21:26;7.57;;;1.40;;
51732;SDS011;39139;53.144;6.244;2023-08-01T07:23:52;8.02;;;1.17;;
51732;SDS011;39139;53.144;6.244;2023-08-01T07:26:17;11.18;;;1.02;;
51732;SDS011;39139;53.144;6.244;2023-08-01T07:28:43;6.45;;;1.15;;
51732;SDS011;39139;53.144;6.244;2023-08-01T07:31:09;5.20;;;1.25;;
51732;SDS011;39139;53.144;6.244;2023-08-01T07:33:35;4.05;;;1.00;;
51732;SDS011;39139;53.144;6.244;2023-08-01T07:36:01;8.38;;;1.42;;
51732;SDS011;39139;53.144;6.244;2023-08-01T07:38:27;6.72;;;1.27;;
51732;SDS011;39139;53.144;6.244;2023-08-01T07:40:53;5.10;;;1.10;;
51732;SDS011;39139;53.144;6.244;2023-08-01T07:43:19;11.75;;;1.98;;
51732;SDS011;39139;53.144;6.244;2023-08-01T07:45:45;9.55;;;1.85;;
51732;SDS011;39139;53.144;6.244;2023-08-01T07:48:11;7.55;;;1.27;;
51732;SDS011;39139;53.144;6.244;2023-08-01T07:50:37;7.95;;;1.75;;
51732;SDS011;39139;53.144;6.244;2023-08-01T07:53:03;6.90;;;1.83;;
51732;SDS011;39139;53.144;6.244;2023-08-01T07:55:28;11.23;;;2.30;;
51732;SDS011;39139;53.144;6.244;2023-08-01T08:00:23;13.10;;;1.85;;
51732;SDS011;39139;53.144;6.244;2023-08-01T08:02:49;9.35;;;1.90;;
51732;SDS011;39139;53.144;6.244;2023-08-01T08:05:14;8.63;;;1.73;;
51732;SDS011;39139;53.144;6.244;2023-08-01T08:07:40;5.93;;;1.17;;
51732;SDS011;39139;53.144;6.244;2023-08-01T08:10:06;14.63;;;1.40;;
51732;SDS011;39139;53.144;6.244;2023-08-01T08:12:32;9.70;;;1.67;;
51732;SDS011;39139;53.144;6.244;2023-08-01T08:14:58;11.63;;;1.40;;
51732;SDS011;39139;53.144;6.244;2023-08-01T08:17:23;8.60;;;1.70;;
51732;SDS011;39139;53.144;6.244;2023-08-01T08:19:49;8.68;;;1.42;;
51732;SDS011;39139;53.144;6.244;2023-08-01T08:22:15;7.55;;;1.63;;
51732;SDS011;39139;53.144;6.244;2023-08-01T08:24:40;7.53;;;1.60;;
51732;SDS011;39139;53.144;6.244;2023-08-01T08:27:06;11.00;;;1.77;;
51732;SDS011;39139;53.144;6.244;2023-08-01T08:29:32;15.10;;;2.03;;
51732;SDS011;39139;53.144;6.244;2023-08-01T08:31:58;7.75;;;2.30;;
51732;SDS011;39139;53.144;6.244;2023-08-01T08:34:24;10.85;;;2.03;;
51732;SDS011;39139;53.144;6.244;2023-08-01T08:36:49;16.20;;;1.92;;
51732;SDS011;39139;53.144;6.244;2023-08-01T08:39:18;8.60;;;2.15;;
51732;SDS011;39139;53.144;6.244;2023-08-01T08:41:48;15.63;;;2.53;;
51732;SDS011;39139;53.144;6.244;2023-08-01T08:44:17;13.55;;;2.88;;
51732;SDS011;39139;53.144;6.244;2023-08-01T08:46:49;12.82;;;2.33;;
51732;SDS011;39139;53.144;6.244;2023-08-01T08:49:17;9.18;;;2.15;;
51732;SDS011;39139;53.144;6.244;2023-08-01T08:51:45;9.20;;;1.77;;
51732;SDS011;39139;53.144;6.244;2023-08-01T08:54:11;11.63;;;2.03;;
51732;SDS011;39139;53.144;6.244;2023-08-01T08:56:38;5.13;;;1.60;;
51732;SDS011;39139;53.144;6.244;2023-08-01T08:59:06;14.65;;;2.08;;
51732;SDS011;39139;53.144;6.244;2023-08-01T09:01:36;7.93;;;1.80;;
51732;SDS011;39139;53.144;6.244;2023-08-01T09:04:02;6.80;;;1.50;;
51732;SDS011;39139;53.144;6.244;2023-08-01T09:06:29;6.68;;;1.38;;
51732;SDS011;39139;53.144;6.244;2023-08-01T09:09:17;3.60;;;0.90;;
51732;SDS011;39139;53.144;6.244;2023-08-01T09:14:16;4.70;;;1.17;;
51732;SDS011;39139;53.144;6.244;2023-08-01T09:16:43;5.72;;;1.70;;
51732;SDS011;39139;53.144;6.244;2023-08-01T09:19:09;6.35;;;1.80;;
51732;SDS011;39139;53.144;6.244;2023-08-01T09:21:38;4.43;;;1.30;;
51732;SDS011;39139;53.144;6.244;2023-08-01T09:24:08;4.97;;;1.48;;
51732;SDS011;39139;53.144;6.244;2023-08-01T09:26:38;5.90;;;1.40;;
51732;SDS011;39139;53.144;6.244;2023-08-01T09:29:04;9.02;;;1.40;;
51732;SDS011;39139;53.144;6.244;2023-08-01T09:31:31;4.47;;;0.90;;
51732;SDS011;39139;53.144;6.244;2023-08-01T09:33:59;5.45;;;1.25;;
51732;SDS011;39139;53.144;6.244;2023-08-01T09:36:25;6.28;;;1.15;;
51732;SDS011;39139;53.144;6.244;2023-08-01T09:38:51;5.53;;;1.00;;
51732;SDS011;39139;53.144;6.244;2023-08-01T09:41:19;3.92;;;0.82;;
51732;SDS011;39139;53.144;6.244;2023-08-01T09:43:46;5.88;;;1.05;;
51732;SDS011;39139;53.144;6.244;2023-08-01T09:46:13;3.97;;;0.93;;
51732;SDS011;39139;53.144;6.244;2023-08-01T09:48:38;6.43;;;1.88;;
51732;SDS011;39139;53.144;6.244;2023-08-01T09:53:33;5.38;;;1.73;;
51732;SDS011;39139;53.144;6.244;2023-08-01T09:56:00;7.10;;;1.25;;
51732;SDS011;39139;53.144;6.244;2023-08-01T09:58:28;7.15;;;2.10;;
51732;SDS011;39139;53.144;6.244;2023-08-01T10:00:59;7.45;;;2.15;;
51732;SDS011;39139;53.144;6.244;2023-08-01T10:03:27;10.00;;;1.60;;
51732;SDS011;39139;53.144;6.244;2023-08-01T10:05:54;9.27;;;2.10;;
51732;SDS011;39139;53.144;6.244;2023-08-01T10:08:20;6.05;;;2.05;;
51732;SDS011;39139;53.144;6.244;2023-08-01T10:10:48;6.88;;;2.05;;
51732;SDS011;39139;53.144;6.244;2023-08-01T10:13:14;10.90;;;2.70;;
51732;SDS011;39139;53.144;6.244;2023-08-01T10:15:40;5.53;;;2.28;;
51732;SDS011;39139;53.144;6.244;2023-08-01T10:18:06;7.95;;;1.70;;
51732;SDS011;39139;53.144;6.244;2023-08-01T10:20:32;8.27;;;1.80;;
51732;SDS011;39139;53.144;6.244;2023-08-01T10:22:59;6.82;;;1.83;;
51732;SDS011;39139;53.144;6.244;2023-08-01T10:25:25;7.07;;;1.52;;
51732;SDS011;39139;53.144;6.244;2023-08-01T10:27:58;6.70;;;1.33;;
51732;SDS011;39139;53.144;6.244;2023-08-01T10:30:30;8.63;;;1.23;;
51732;SDS011;39139;53.144;6.244;2023-08-01T10:32:58;10.10;;;1.38;;
51732;SDS011;39139;53.144;6.244;2023-08-01T10:35:31;7.47;;;1.30;;
51732;SDS011;39139;53.144;6.244;2023-08-01T10:38:08;5.00;;;1.02;;
51732;SDS011;39139;53.144;6.244;2023-08-01T10:40:41;9.70;;;1.48;;
51732;SDS011;39139;53.144;6.244;2023-08-01T10:43:20;7.80;;;1.45;;
51732;SDS011;39139;53.144;6.244;2023-08-01T10:45:47;7.47;;;1.27;;
51732;SDS011;39139;53.144;6.244;2023-08-01T10:48:13;7.20;;;1.52;;
51732;SDS011;39139;53.144;6.244;2023-08-01T10:50:39;10.35;;;1.70;;
51732;SDS011;39139;53.144;6.244;2023-08-01T10:53:06;7.95;;;1.08;;
51732;SDS011;39139;53.144;6.244;2023-08-01T10:55:40;7.15;;;1.02;;
51732;SDS011;39139;53.144;6.244;2023-08-01T10:58:10;8.40;;;1.60;;
51732;SDS011;39139;53.144;6.244;2023-08-01T11:00:36;5.50;;;1.00;;
51732;SDS011;39139;53.144;6.244;2023-08-01T11:03:02;2.75;;;0.73;;
51732;SDS011;39139;53.144;6.244;2023-08-01T11:05:28;4.70;;;1.35;;
51732;SDS011;39139;53.144;6.244;2023-08-01T11:08:01;8.13;;;1.02;;
51732;SDS011;39139;53.144;6.244;2023-08-01T11:10:31;9.48;;;1.75;;
51732;SDS011;39139;53.144;6.244;2023-08-01T11:15:23;6.20;;;0.88;;
51732;SDS011;39139;53.144;6.244;2023-08-01T11:17:50;6.93;;;1.17;;
51732;SDS011;39139;53.144;6.244;2023-08-01T11:20:22;18.60;;;1.80;;
51732;SDS011;39139;53.144;6.244;2023-08-01T11:22:56;4.13;;;0.65;;
51732;SDS011;39139;53.144;6.244;2023-08-01T11:25:59;3.88;;;0.82;;
51732;SDS011;39139;53.144;6.244;2023-08-01T11:28:19;5.63;;;0.63;;
51732;SDS011;39139;53.144;6.244;2023-08-01T11:30:45;4.10;;;0.70;;
51732;SDS011;39139;53.144;6.244;2023-08-01T11:35:41;4.38;;;0.60;;
51732;SDS011;39139;53.144;6.244;2023-08-01T11:38:08;9.15;;;1.27;;
51732;SDS011;39139;53.144;6.244;2023-08-01T11:40:33;4.72;;;0.82;;
51732;SDS011;39139;53.144;6.244;2023-08-01T11:42:59;11.90;;;1.98;;
51732;SDS011;39139;53.144;6.244;2023-08-01T11:45:25;9.95;;;1.88;;
51732;SDS011;39139;53.144;6.244;2023-08-01T11:47:51;10.77;;;1.50;;
51732;SDS011;39139;53.144;6.244;2023-08-01T11:50:20;4.18;;;1.13;;
51732;SDS011;39139;53.144;6.244;2023-08-01T11:52:50;6.75;;;1.02;;
51732;SDS011;39139;53.144;6.244;2023-08-01T11:55:24;6.32;;;1.70;;
51732;SDS011;39139;53.144;6.244;2023-08-01T11:57:52;7.07;;;1.67;;
51732;SDS011;39139;53.144;6.244;2023-08-01T12:00:22;10.48;;;2.15;;
51732;SDS011;39139;53.144;6.244;2023-08-01T12:03:08;10.05;;;1.90;;
51732;SDS011;39139;53.144;6.244;2023-08-01T12:05:39;6.88;;;1.60;;
51732;SDS011;39139;53.144;6.244;2023-08-01T12:10:44;11.02;;;1.40;;
51732;SDS011;39139;53.144;6.244;2023-08-01T12:13:23;9.18;;;1.45;;
51732;SDS011;39139;53.144;6.244;2023-08-01T12:15:51;8.95;;;1.77;;
51732;SDS011;39139;53.144;6.244;2023-08-01T12:18:21;5.65;;;1.30;;
51732;SDS011;39139;53.144;6.244;2023-08-01T12:20:56;6.32;;;1.42;;
51732;SDS011;39139;53.144;6.244;2023-08-01T12:23:22;7.25;;;1.23;;
51732;SDS011;39139;53.144;6.244;2023-08-01T12:25:47;9.77;;;1.77;;
51732;SDS011;39139;53.144;6.244;2023-08-01T12:28:14;9.80;;;1.08;;
51732;SDS011;39139;53.144;6.244;2023-08-01T12:30:40;7.65;;;1.35;;
51732;SDS011;39139;53.144;6.244;2023-08-01T12:33:07;11.07;;;1.90;;
51732;SDS011;39139;53.144;6.244;2023-08-01T12:35:33;7.22;;;1.58;;
51732;SDS011;39139;53.144;6.244;2023-08-01T12:38:01;9.63;;;1.73;;
51732;SDS011;39139;53.144;6.244;2023-08-01T12:40:27;8.70;;;1.40;;
51732;SDS011;39139;53.144;6.244;2023-08-01T12:42:53;7.10;;;1.38;;
51732;SDS011;39139;53.144;6.244;2023-08-01T12:45:19;7.13;;;1.55;;
51732;SDS011;39139;53.144;6.244;2023-08-01T12:47:44;13.73;;;1.65;;
51732;SDS011;39139;53.144;6.244;2023-08-01T12:50:11;8.30;;;1.67;;
51732;SDS011;39139;53.144;6.244;2023-08-01T12:52:36;5.45;;;1.35;;
51732;SDS011;39139;53.144;6.244;2023-08-01T12:55:02;8.02;;;1.63;;
51732;SDS011;39139;53.144;6.244;2023-08-01T12:57:28;6.90;;;1.17;;
51732;SDS011;39139;53.144;6.244;2023-08-01T12:59:53;5.95;;;1.20;;
51732;SDS011;39139;53.144;6.244;2023-08-01T13:02:19;5.10;;;1.33;;
51732;SDS011;39139;53.144;6.244;2023-08-01T13:04:48;5.43;;;1.15;;
51732;SDS011;39139;53.144;6.244;2023-08-01T13:07:13;6.15;;;1.05;;
51732;SDS011;39139;53.144;6.244;2023-08-01T13:09:39;5.30;;;1.58;;
51732;SDS011;39139;53.144;6.244;2023-08-01T13:12:05;8.60;;;1.50;;
51732;SDS011;39139;53.144;6.244;2023-08-01T13:14:31;8.52;;;1.90;;
51732;SDS011;39139;53.144;6.244;2023-08-01T13:16:57;8.20;;;1.83;;
51732;SDS011;39139;53.144;6.244;2023-08-01T13:19:24;10.63;;;2.10;;
51732;SDS011;39139;53.144;6.244;2023-08-01T13:21:50;7.35;;;1.70;;
51732;SDS011;39139;53.144;6.244;2023-08-01T13:24:16;6.63;;;1.83;;
51732;SDS011;39139;53.144;6.244;2023-08-01T13:26:42;12.10;;;1.88;;
51732;SDS011;39139;53.144;6.244;2023-08-01T13:29:07;10.52;;;2.45;;
51732;SDS011;39139;53.144;6.244;2023-08-01T13:31:33;4.55;;;1.48;;
51732;SDS011;39139;53.144;6.244;2023-08-01T13:33:58;6.30;;;1.50;;
51732;SDS011;39139;53.144;6.244;2023-08-01T13:36:24;6.00;;;1.50;;
51732;SDS011;39139;53.144;6.244;2023-08-01T13:38:50;4.47;;;1.45;;
51732;SDS011;39139;53.144;6.244;2023-08-01T13:41:16;6.03;;;1.48;;
51732;SDS011;39139;53.144;6.244;2023-08-01T13:43:41;8.85;;;1.27;;
51732;SDS011;39139;53.144;6.244;2023-08-01T13:46:11;9.00;;;1.33;;
51732;SDS011;39139;53.144;6.244;2023-08-01T13:48:38;3.65;;;0.93;;
51732;SDS011;39139;53.144;6.244;2023-08-01T13:51:04;4.93;;;0.98;;
51732;SDS011;39139;53.144;6.244;2023-08-01T13:53:30;4.93;;;1.42;;
51732;SDS011;39139;53.144;6.244;2023-08-01T13:55:55;2.50;;;0.95;;
51732;SDS011;39139;53.144;6.244;2023-08-01T13:58:21;10.65;;;1.20;;
51732;SDS011;39139;53.144;6.244;2023-08-01T14:00:47;6.28;;;1.23;;
51732;SDS011;39139;53.144;6.244;2023-08-01T14:03:12;11.43;;;1.27;;
51732;SDS011;39139;53.144;6.244;2023-08-01T14:05:38;6.38;;;1.52;;
51732;SDS011;39139;53.144;6.244;2023-08-01T14:08:03;4.40;;;1.45;;
51732;SDS011;39139;53.144;6.244;2023-08-01T14:10:30;5.47;;;1.38;;
51732;SDS011;39139;53.144;6.244;2023-08-01T14:12:55;4.95;;;0.70;;
51732;SDS011;39139;53.144;6.244;2023-08-01T14:15:21;4.93;;;1.60;;
51732;SDS011;39139;53.144;6.244;2023-08-01T14:17:47;5.55;;;1.10;;
51732;SDS011;39139;53.144;6.244;2023-08-01T14:20:12;8.48;;;1.60;;
51732;SDS011;39139;53.144;6.244;2023-08-01T14:22:38;7.43;;;1.55;;
51732;SDS011;39139;53.144;6.244;2023-08-01T14:25:06;7.20;;;1.13;;
51732;SDS011;39139;53.144;6.244;2023-08-01T14:27:32;5.53;;;1.40;;
51732;SDS011;39139;53.144;6.244;2023-08-01T14:29:58;4.10;;;1.08;;
51732;SDS011;39139;53.144;6.244;2023-08-01T14:32:23;6.70;;;1.40;;
51732;SDS011;39139;53.144;6.244;2023-08-01T14:34:49;8.43;;;1.55;;
51732;SDS011;39139;53.144;6.244;2023-08-01T14:37:14;4.82;;;1.52;;
51732;SDS011;39139;53.144;6.244;2023-08-01T14:39:40;9.20;;;1.58;;
51732;SDS011;39139;53.144;6.244;2023-08-01T14:42:06;5.80;;;1.35;;
51732;SDS011;39139;53.144;6.244;2023-08-01T14:44:31;3.55;;;1.25;;
51732;SDS011;39139;53.144;6.244;2023-08-01T14:46:57;8.45;;;1.50;;
51732;SDS011;39139;53.144;6.244;2023-08-01T14:49:23;6.22;;;1.13;;
51732;SDS011;39139;53.144;6.244;2023-08-01T14:54:18;3.00;;;1.00;;
51732;SDS011;39139;53.144;6.244;2023-08-01T14:56:44;3.60;;;0.85;;
51732;SDS011;39139;53.144;6.244;2023-08-01T14:59:10;5.47;;;1.30;;
51732;SDS011;39139;53.144;6.244;2023-08-01T15:01:35;5.28;;;1.27;;